Time;durP1;ratioP1;P1;durP2;ratioP2;P2;SDS_P1;SDS_P2;PMS_P1;PMS_P2;Temp;Humidity;BMP_temperature;BMP_pressure;BME280_temperature;BME280_humidity;BME280_pressure;Samples;Min_cycle;Max_cycle;Signal;HPM_P1;HPM_P2
2022/06/05 00:00:31;;;;;;;15.50;10.30;;;12.60;90.10;;;;;;5044382;28;20049;-41
2022/06/05 00:03:16;;;;;;;14.23;10.07;;;12.60;90.10;;;;;;5027236;28;20041;-42
2022/06/05 00:06:05;;;;;;;16.50;10.95;;;12.60;90.10;;;;;;5029048;28;20026;-43
2022/06/05 00:08:36;;;;;;;15.25;10.43;;;12.60;90.10;;;;;;5026981;28;20029;-42
2022/06/05 00:11:02;;;;;;;18.88;11.07;;;12.60;90.20;;;;;;5028021;28;20022;-41
2022/06/05 00:13:41;;;;;;;15.30;11.00;;;12.60;90.20;;;;;;5028802;28;20060;-42
2022/06/05 00:16:08;;;;;;;18.05;11.02;;;12.60;90.10;;;;;;5028632;28;20033;-42
2022/06/05 00:18:36;;;;;;;14.55;12.05;;;12.60;90.20;;;;;;5026967;28;20033;-41
2022/06/05 00:21:03;;;;;;;15.63;11.52;;;12.60;90.10;;;;;;5027254;28;20037;-41
2022/06/05 00:23:30;;;;;;;17.33;10.80;;;12.60;90.10;;;;;;5048748;28;20521;-41
2022/06/05 00:25:58;;;;;;;15.18;10.80;;;12.60;90.20;;;;;;5041193;28;20029;-43
2022/06/05 00:28:36;;;;;;;14.05;10.77;;;12.60;90.20;;;;;;5029354;28;20037;-42
2022/06/05 00:31:07;;;;;;;16.02;11.77;;;12.60;90.20;;;;;;5027688;28;20455;-42
2022/06/05 00:33:38;;;;;;;19.27;11.40;;;12.60;90.20;;;;;;5028351;28;20061;-42
2022/06/05 00:36:38;;;;;;;17.60;11.70;;;12.60;90.20;;;;;;5028249;28;20105;-44
2022/06/05 00:39:08;;;;;;;17.20;13.48;;;12.60;90.20;;;;;;5026361;28;20025;-41
2022/06/05 00:41:42;;;;;;;15.77;11.50;;;12.60;90.30;;;;;;5027734;28;20496;-43
2022/06/05 00:44:15;;;;;;;13.52;12.13;;;12.60;90.40;;;;;;5025573;28;20048;-42
2022/06/05 00:46:42;;;;;;;15.38;12.40;;;12.60;90.40;;;;;;5028450;28;20025;-43
2022/06/05 00:49:10;;;;;;;19.77;13.18;;;12.70;90.40;;;;;;5027711;28;20108;-42
2022/06/05 00:51:36;;;;;;;16.85;13.40;;;12.70;90.40;;;;;;5033601;28;20445;-43
2022/06/05 00:54:02;;;;;;;20.88;12.75;;;12.70;90.40;;;;;;5048256;28;20127;-43
2022/06/05 00:56:28;;;;;;;16.88;12.68;;;12.70;90.50;;;;;;5035459;28;20037;-41
2022/06/05 00:58:54;;;;;;;20.25;13.55;;;12.70;90.50;;;;;;5047826;28;20025;-42
2022/06/05 01:01:20;;;;;;;17.88;13.30;;;12.70;90.60;;;;;;5034376;28;20021;-42
2022/06/05 01:03:47;;;;;;;16.75;12.93;;;12.70;90.60;;;;;;5030536;28;20087;-43
2022/06/05 01:06:13;;;;;;;18.83;13.60;;;12.70;90.70;;;;;;5029875;28;20021;-43
2022/06/05 01:08:39;;;;;;;18.30;12.75;;;12.70;90.80;;;;;;5031481;28;20021;-43
2022/06/05 01:11:28;;;;;;;21.92;13.30;;;12.70;90.80;;;;;;5029981;28;20100;-41
2022/06/05 01:14:14;;;;;;;18.65;12.40;;;12.70;90.80;;;;;;5029279;28;20075;-42
2022/06/05 01:17:14;;;;;;;19.17;13.75;;;12.80;90.80;;;;;;5038147;28;20040;-42
2022/06/05 01:19:55;;;;;;;17.63;13.40;;;12.80;90.80;;;;;;5051588;28;20029;-41
2022/06/05 01:22:29;;;;;;;16.23;12.93;;;12.80;90.80;;;;;;5034931;28;20116;-42
2022/06/05 01:25:18;;;;;;;24.23;13.80;;;12.80;90.70;;;;;;5031286;28;20079;-45
2022/06/05 01:27:52;;;;;;;18.13;12.75;;;12.80;90.70;;;;;;5030495;28;20357;-42
2022/06/05 01:30:23;;;;;;;20.40;12.77;;;12.70;90.50;;;;;;5030149;28;20045;-43
2022/06/05 01:33:19;;;;;;;17.55;13.48;;;12.70;90.60;;;;;;5031133;28;20026;-41
2022/06/05 01:35:59;;;;;;;18.00;13.52;;;12.70;90.60;;;;;;5029392;28;20033;-41
2022/06/05 01:38:38;;;;;;;21.02;14.43;;;12.70;90.60;;;;;;5030711;28;20080;-47
2022/06/05 01:41:14;;;;;;;23.77;14.40;;;12.70;90.60;;;;;;5029528;28;20374;-41
2022/06/05 01:43:46;;;;;;;22.02;14.98;;;12.70;90.70;;;;;;5028555;28;20030;-43
2022/06/05 01:46:38;;;;;;;19.00;13.70;;;12.70;90.80;;;;;;5029674;28;20025;-42
2022/06/05 01:49:20;;;;;;;16.20;13.05;;;12.70;90.80;;;;;;5028180;28;20625;-41
2022/06/05 01:52:15;;;;;;;18.38;14.40;;;12.80;90.80;;;;;;5029720;28;20060;-43
2022/06/05 01:54:50;;;;;;;17.13;13.77;;;12.80;90.80;;;;;;5030894;28;20132;-42
2022/06/05 01:57:20;;;;;;;18.48;13.93;;;12.90;90.90;;;;;;5029827;28;20048;-44
2022/06/05 01:59:51;;;;;;;20.17;14.82;;;12.80;90.80;;;;;;5042518;28;20311;-42
2022/06/05 02:02:25;;;;;;;18.58;14.43;;;12.80;91.00;;;;;;5027675;28;20383;-42
2022/06/05 02:05:01;;;;;;;22.73;14.95;;;12.90;90.90;;;;;;5030781;28;20022;-43
2022/06/05 02:07:33;;;;;;;20.35;14.75;;;12.80;90.90;;;;;;5030105;28;20035;-43
2022/06/05 02:10:13;;;;;;;19.83;14.93;;;12.80;90.90;;;;;;5029851;28;20037;-44
2022/06/05 02:12:39;;;;;;;20.98;15.93;;;12.90;91.00;;;;;;5029469;28;20087;-45
2022/06/05 02:15:07;;;;;;;17.02;14.35;;;12.80;90.90;;;;;;5028470;28;20022;-45
2022/06/05 02:17:36;;;;;;;19.70;14.95;;;12.90;90.90;;;;;;5030532;28;20121;-42
2022/06/05 02:20:05;;;;;;;25.73;17.97;;;12.80;90.70;;;;;;5029257;28;20025;-42
2022/06/05 02:22:37;;;;;;;22.08;16.42;;;12.80;90.70;;;;;;5028343;28;20025;-42
2022/06/05 02:25:03;;;;;;;22.95;16.60;;;12.80;90.70;;;;;;5030534;28;20112;-44
2022/06/05 02:27:29;;;;;;;19.10;15.13;;;12.70;90.70;;;;;;5027547;28;20029;-43
2022/06/05 02:29:56;;;;;;;19.50;15.07;;;12.70;90.70;;;;;;5029464;28;20045;-43
2022/06/05 02:32:47;;;;;;;17.75;14.45;;;12.70;90.60;;;;;;5027396;28;20034;-42
2022/06/05 02:35:29;;;;;;;18.05;14.65;;;12.70;90.50;;;;;;5029424;28;20100;-43
2022/06/05 02:38:07;;;;;;;21.63;15.40;;;12.70;90.50;;;;;;5028805;28;20116;-43
2022/06/05 02:40:52;;;;;;;20.75;15.35;;;12.60;90.60;;;;;;5028805;28;20026;-45
2022/06/05 02:43:29;;;;;;;18.83;14.75;;;12.60;90.50;;;;;;5027058;28;20442;-44
2022/06/05 02:46:07;;;;;;;21.40;15.90;;;12.60;90.40;;;;;;5027512;28;20334;-44
2022/06/05 02:48:42;;;;;;;19.23;15.55;;;12.60;90.40;;;;;;5027377;28;20207;-43
2022/06/05 02:51:20;;;;;;;22.17;16.10;;;12.50;90.40;;;;;;5029267;28;20183;-44
2022/06/05 02:53:50;;;;;;;20.50;14.80;;;12.50;90.40;;;;;;5027523;28;20128;-44
2022/06/05 02:56:19;;;;;;;18.50;15.52;;;12.50;90.40;;;;;;5029491;28;20029;-43
2022/06/05 02:58:48;;;;;;;19.27;16.27;;;12.50;90.50;;;;;;5028843;28;20103;-44
2022/06/05 03:03:58;;;;;;;19.33;15.45;;;12.50;90.40;;;;;;5028569;28;20053;-44
2022/06/05 03:06:24;;;;;;;20.73;14.95;;;12.50;90.40;;;;;;5034457;28;20370;-44
2022/06/05 03:08:50;;;;;;;19.50;16.15;;;12.50;90.40;;;;;;5048594;28;20072;-43
2022/06/05 03:11:15;;;;;;;20.70;16.92;;;12.50;90.40;;;;;;5030307;28;20033;-43
2022/06/05 03:13:41;;;;;;;25.50;17.63;;;12.50;90.30;;;;;;5029299;28;20075;-45
2022/06/05 03:16:09;;;;;;;19.35;16.50;;;12.50;90.40;;;;;;5028427;28;20448;-43
2022/06/05 03:18:35;;;;;;;20.63;16.92;;;12.50;90.40;;;;;;5029397;28;20052;-43
2022/06/05 03:21:01;;;;;;;21.60;16.92;;;12.50;90.40;;;;;;5028205;28;20017;-43
2022/06/05 03:23:26;;;;;;;20.73;15.38;;;12.50;90.40;;;;;;5029024;28;20042;-43
2022/06/05 03:25:53;;;;;;;20.58;16.95;;;12.50;90.40;;;;;;5028420;28;20021;-45
2022/06/05 03:28:19;;;;;;;20.63;16.65;;;12.60;90.40;;;;;;5029198;28;20033;-44
2022/06/05 03:30:44;;;;;;;21.88;17.45;;;12.60;90.40;;;;;;5028237;28;20458;-44
2022/06/05 03:33:13;;;;;;;18.85;15.50;;;12.60;90.40;;;;;;5028580;28;20846;-47
2022/06/05 03:35:42;;;;;;;20.60;16.23;;;12.70;90.40;;;;;;5027618;28;20037;-44
2022/06/05 03:38:11;;;;;;;19.63;15.90;;;12.70;90.30;;;;;;5027992;28;20033;-44
2022/06/05 03:40:44;;;;;;;20.95;16.83;;;12.70;90.30;;;;;;5028354;28;20171;-44
2022/06/05 03:43:11;;;;;;;23.77;17.17;;;12.80;90.30;;;;;;5035977;28;20374;-44
2022/06/05 03:45:37;;;;;;;24.35;17.33;;;12.80;90.30;;;;;;5028171;28;20022;-44
2022/06/05 03:48:03;;;;;;;21.67;16.40;;;12.90;90.20;;;;;;5029038;28;20036;-43
2022/06/05 03:50:28;;;;;;;17.63;15.57;;;12.90;90.30;;;;;;5028887;28;20036;-44
2022/06/05 03:52:54;;;;;;;20.17;15.85;;;12.90;90.20;;;;;;5028178;28;20044;-43
2022/06/05 03:55:22;;;;;;;22.30;16.80;;;13.00;90.00;;;;;;5028709;28;20061;-43
2022/06/05 03:57:48;;;;;;;18.33;15.80;;;13.00;89.90;;;;;;5027861;28;20104;-43
2022/06/05 04:00:17;;;;;;;22.17;15.10;;;13.10;89.90;;;;;;5008148;28;20467;-44
2022/06/05 04:02:43;;;;;;;18.23;15.43;;;13.10;89.80;;;;;;5010447;28;20065;-43
2022/06/05 04:05:11;;;;;;;17.88;15.45;;;13.20;89.70;;;;;;5028944;28;20029;-44
2022/06/05 04:07:37;;;;;;;17.98;15.98;;;13.20;89.40;;;;;;5028126;28;20018;-44
2022/06/05 04:10:03;;;;;;;17.30;15.52;;;13.20;89.40;;;;;;5027772;28;20056;-44
2022/06/05 04:12:29;;;;;;;16.77;13.98;;;13.20;89.30;;;;;;5027961;28;20156;-46
2022/06/05 04:15:02;;;;;;;18.55;14.50;;;13.30;89.20;;;;;;5012487;28;20080;-44
2022/06/05 04:17:28;;;;;;;15.77;14.07;;;13.30;89.20;;;;;;5028843;28;20034;-45
2022/06/05 04:19:53;;;;;;;19.17;15.55;;;13.40;89.00;;;;;;5027707;28;20041;-44
2022/06/05 04:22:20;;;;;;;16.75;14.60;;;13.40;88.90;;;;;;5028289;28;20406;-44
2022/06/05 04:24:46;;;;;;;14.75;12.88;;;13.40;88.80;;;;;;5027207;28;20080;-43
2022/06/05 04:27:11;;;;;;;13.57;12.18;;;13.40;88.60;;;;;;5028507;28;20033;-45
2022/06/05 04:29:37;;;;;;;20.73;14.02;;;13.50;88.60;;;;;;5028925;28;20389;-43
2022/06/05 04:32:03;;;;;;;17.10;13.38;;;13.50;88.20;;;;;;5029548;28;20037;-43
2022/06/05 04:34:28;;;;;;;16.88;14.40;;;13.60;87.80;;;;;;5031551;28;20033;-43
2022/06/05 04:36:54;;;;;;;18.13;13.18;;;13.70;87.60;;;;;;5030054;28;20356;-43
2022/06/05 04:39:23;;;;;;;15.93;13.73;;;13.70;87.40;;;;;;5028830;28;20364;-43
2022/06/05 04:41:48;;;;;;;16.52;13.82;;;13.80;87.20;;;;;;5032172;28;20048;-43
2022/06/05 04:44:17;;;;;;;16.00;13.15;;;13.80;87.10;;;;;;5031399;28;20033;-44
2022/06/05 04:46:43;;;;;;;15.35;12.38;;;13.90;87.10;;;;;;5032006;28;20025;-43
2022/06/05 04:49:10;;;;;;;15.90;11.50;;;13.90;87.00;;;;;;5030759;28;20070;-43
2022/06/05 04:51:36;;;;;;;16.10;11.82;;;13.90;86.90;;;;;;5031003;28;20041;-43
2022/06/05 04:54:04;;;;;;;13.32;11.45;;;13.90;86.70;;;;;;5013916;28;20256;-42
2022/06/05 04:56:32;;;;;;;13.93;12.20;;;13.90;86.80;;;;;;5032034;28;20036;-42
2022/06/05 04:59:02;;;;;;;15.25;12.38;;;14.00;86.80;;;;;;5014970;28;20026;-43
2022/06/05 05:01:29;;;;;;;;;;;13.90;86.40;;;;;;5027538;28;20029;-43
2022/06/05 05:04:01;;;;;;;13.57;11.48;;;14.00;86.50;;;;;;5031490;28;20018;-42
2022/06/05 05:06:28;;;;;;;18.17;11.65;;;14.00;86.40;;;;;;5030602;28;20057;-42
2022/06/05 05:08:54;;;;;;;13.27;11.18;;;14.00;86.40;;;;;;5016132;28;20029;-43
2022/06/05 05:11:21;;;;;;;13.85;11.60;;;14.10;86.40;;;;;;5030592;28;20044;-41
2022/06/05 05:13:47;;;;;;;14.23;12.15;;;14.10;86.40;;;;;;5031401;28;20041;-41
2022/06/05 05:16:13;;;;;;;12.35;10.93;;;14.20;86.30;;;;;;5030144;28;20026;-43
2022/06/05 05:18:39;;;;;;;14.32;11.73;;;14.30;86.10;;;;;;5029004;28;20152;-42
2022/06/05 05:21:21;;;;;;;13.05;9.90;;;14.40;85.90;;;;;;5031365;28;20032;-42
2022/06/05 05:23:48;;;;;;;13.63;10.40;;;14.50;85.90;;;;;;5030271;28;20028;-41
2022/06/05 05:26:15;;;;;;;15.82;11.25;;;14.60;85.50;;;;;;5051237;28;20029;-43
2022/06/05 05:28:42;;;;;;;13.20;10.40;;;14.70;85.20;;;;;;5047664;28;20041;-42
2022/06/05 05:31:10;;;;;;;12.93;10.82;;;14.70;85.00;;;;;;5049914;28;20025;-42
2022/06/05 05:33:37;;;;;;;14.20;11.02;;;14.80;84.90;;;;;;5031312;28;20362;-41
2022/06/05 05:36:04;;;;;;;13.98;12.48;;;14.90;84.70;;;;;;5031632;28;20084;-42
2022/06/05 05:38:29;;;;;;;13.43;11.35;;;15.00;84.00;;;;;;5031153;28;20529;-41
2022/06/05 05:43:40;;;;;;;11.68;10.50;;;15.40;84.30;;;;;;5029609;28;20048;-41
2022/06/05 05:46:13;;;;;;;11.90;10.75;;;15.80;83.40;;;;;;5033466;28;20054;-42
2022/06/05 05:48:39;;;;;;;10.10;8.35;;;16.20;82.20;;;;;;5034853;28;20040;-42
2022/06/05 05:51:17;;;;;;;10.07;9.07;;;16.50;81.10;;;;;;5031061;28;20417;-42
2022/06/05 05:53:43;;;;;;;11.45;9.13;;;17.00;79.80;;;;;;5030010;28;20045;-45
2022/06/05 05:56:12;;;;;;;10.75;9.65;;;17.20;79.00;;;;;;5030898;28;20036;-43
2022/06/05 05:58:39;;;;;;;11.60;9.77;;;17.00;77.80;;;;;;5033771;28;20477;-42
2022/06/05 06:01:10;;;;;;;12.73;10.27;;;16.70;78.40;;;;;;5037466;28;20053;-43
2022/06/05 06:03:37;;;;;;;11.63;10.43;;;16.60;78.90;;;;;;5030824;28;20021;-43
2022/06/05 06:06:06;;;;;;;11.05;9.27;;;16.60;79.20;;;;;;5029063;28;20113;-45
2022/06/05 06:08:32;;;;;;;13.60;11.05;;;16.40;79.40;;;;;;5030032;28;20129;-45
2022/06/05 06:10:58;;;;;;;11.85;10.75;;;16.40;79.70;;;;;;5029604;28;20033;-43
2022/06/05 06:13:26;;;;;;;11.43;9.45;;;16.40;80.00;;;;;;5028993;28;20034;-43
2022/06/05 06:15:51;;;;;;;12.80;10.43;;;16.40;80.20;;;;;;5030598;28;20038;-43
2022/06/05 06:18:17;;;;;;;17.42;10.88;;;16.40;80.70;;;;;;5032763;28;20101;-42
2022/06/05 06:20:44;;;;;;;10.48;9.30;;;16.60;79.90;;;;;;5033112;28;20021;-42
2022/06/05 06:23:10;;;;;;;11.27;10.05;;;16.70;79.90;;;;;;5048783;28;20100;-44
2022/06/05 06:25:37;;;;;;;15.30;12.02;;;16.90;79.60;;;;;;5032316;28;20116;-48
2022/06/05 06:28:04;;;;;;;11.48;10.27;;;17.00;78.90;;;;;;5030474;28;20035;-44
2022/06/05 06:30:32;;;;;;;11.48;10.25;;;17.10;78.20;;;;;;5027450;28;20403;-44
2022/06/05 06:32:57;;;;;;;10.20;9.20;;;17.20;77.70;;;;;;5046404;28;20029;-43
2022/06/05 06:35:25;;;;;;;11.68;9.68;;;17.30;78.50;;;;;;5030532;28;20413;-44
2022/06/05 06:37:53;;;;;;;11.68;8.70;;;17.50;78.00;;;;;;5026619;28;20033;-46
2022/06/05 06:40:21;;;;;;;12.00;9.98;;;17.60;77.80;;;;;;5028947;28;20033;-44
2022/06/05 06:42:48;;;;;;;11.70;9.88;;;17.90;77.40;;;;;;5040562;28;20033;-46
2022/06/05 06:45:13;;;;;;;11.25;9.90;;;18.00;76.50;;;;;;5037804;28;20048;-43
2022/06/05 06:47:39;;;;;;;9.82;8.85;;;18.10;76.20;;;;;;5027823;28;20474;-45
2022/06/05 06:50:05;;;;;;;9.48;8.40;;;18.30;76.40;;;;;;5028246;28;20370;-45
2022/06/05 06:52:31;;;;;;;9.18;8.05;;;18.40;75.80;;;;;;5028751;28;20098;-44
2022/06/05 06:54:59;;;;;;;7.78;6.80;;;18.60;75.00;;;;;;5032581;28;20529;-45
2022/06/05 06:57:25;;;;;;;9.02;7.45;;;18.70;74.80;;;;;;5012588;28;20034;-45
2022/06/05 06:59:50;;;;;;;7.05;6.32;;;18.80;72.90;;;;;;5032860;28;20406;-45
2022/06/05 07:02:16;;;;;;;7.03;6.32;;;18.90;72.90;;;;;;5024276;28;20053;-45
2022/06/05 07:04:42;;;;;;;9.43;7.13;;;19.00;71.00;;;;;;5028916;28;20025;-45
2022/06/05 07:07:07;;;;;;;9.35;7.05;;;19.10;70.40;;;;;;5028677;28;20082;-47
2022/06/05 07:09:35;;;;;;;8.93;8.05;;;19.20;72.50;;;;;;5028840;28;20029;-45
2022/06/05 07:12:01;;;;;;;10.48;6.70;;;19.20;71.40;;;;;;5026991;28;20064;-45
2022/06/05 07:14:30;;;;;;;9.27;7.47;;;19.10;70.90;;;;;;5036088;28;20454;-46
2022/06/05 07:16:58;;;;;;;7.80;6.68;;;19.10;70.80;;;;;;5030492;28;20034;-47
2022/06/05 07:19:24;;;;;;;8.93;7.22;;;19.00;70.70;;;;;;5032020;28;20030;-45
2022/06/05 07:21:49;;;;;;;7.60;6.80;;;19.00;70.30;;;;;;5028001;28;20041;-45
2022/06/05 07:24:16;;;;;;;8.50;7.07;;;19.50;69.80;;;;;;5027883;28;20082;-46
2022/06/05 07:26:42;;;;;;;8.60;7.38;;;19.90;70.30;;;;;;5028743;28;20017;-47
2022/06/05 07:29:08;;;;;;;7.78;6.00;;;20.50;67.40;;;;;;5027379;28;20617;-46
2022/06/05 07:31:33;;;;;;;8.85;7.68;;;21.10;66.90;;;;;;5027543;28;20025;-46
2022/06/05 07:34:04;;;;;;;8.85;7.20;;;21.80;62.10;;;;;;5029126;28;20037;-47
2022/06/05 07:36:30;;;;;;;6.45;5.72;;;22.10;61.50;;;;;;5027767;28;20419;-46
2022/06/05 07:38:57;;;;;;;9.27;6.13;;;22.50;61.60;;;;;;5028301;28;20041;-46
2022/06/05 07:41:26;;;;;;;8.30;6.03;;;23.40;59.10;;;;;;5027431;28;20051;-48
2022/06/05 07:43:52;;;;;;;8.52;5.95;;;23.80;58.60;;;;;;5028182;28;20045;-46
2022/06/05 07:46:18;;;;;;;6.45;5.47;;;24.40;56.70;;;;;;5035455;28;20040;-50
2022/06/05 07:48:45;;;;;;;7.05;6.35;;;24.40;57.00;;;;;;5028299;28;20053;-46
2022/06/05 07:56:45;;;;;;;6.93;6.18;;;24.50;56.00;;;;;;5025606;28;20488;-51
2022/06/05 07:59:10;;;;;;;12.35;7.25;;;24.80;55.80;;;;;;5028671;28;20095;-49
2022/06/05 08:01:36;;;;;;;8.10;7.40;;;24.40;55.90;;;;;;5027640;28;20043;-48
2022/06/05 08:04:03;;;;;;;6.70;5.68;;;24.40;53.60;;;;;;5024467;28;20021;-47
2022/06/05 08:06:29;;;;;;;6.45;5.85;;;24.70;56.00;;;;;;5029478;28;20411;-47
2022/06/05 08:08:55;;;;;;;8.40;5.80;;;24.90;54.40;;;;;;5031123;28;20064;-46
2022/06/05 08:11:23;;;;;;;6.47;5.43;;;25.20;55.60;;;;;;5032793;28;20053;-47
2022/06/05 08:13:48;;;;;;;7.50;6.72;;;25.20;55.30;;;;;;5024459;28;20839;-49
2022/06/05 08:16:14;;;;;;;7.38;6.68;;;25.20;54.70;;;;;;5030694;28;20068;-46
2022/06/05 08:18:40;;;;;;;6.70;5.85;;;25.20;52.60;;;;;;5031992;28;20025;-47
2022/06/05 08:21:05;;;;;;;6.13;5.20;;;25.60;52.40;;;;;;5032032;28;20484;-46
2022/06/05 08:23:31;;;;;;;6.68;5.95;;;25.50;53.90;;;;;;5032234;28;20029;-47
2022/06/05 08:25:57;;;;;;;8.10;6.35;;;25.60;53.00;;;;;;5031748;28;20026;-47
2022/06/05 08:28:25;;;;;;;8.75;6.90;;;26.00;52.50;;;;;;5032986;28;20029;-48
2022/06/05 08:30:52;;;;;;;6.20;4.97;;;25.90;51.80;;;;;;5031817;28;20446;-47
2022/06/05 08:33:17;;;;;;;8.48;6.25;;;25.90;52.30;;;;;;5031784;28;20128;-47
2022/06/05 08:35:46;;;;;;;7.05;5.18;;;25.80;53.80;;;;;;5052448;28;20100;-47
2022/06/05 08:41:34;;;;;;;7.78;5.82;;;25.10;54.70;;;;;;5037502;28;20048;-46
2022/06/05 08:44:37;;;;;;;8.07;6.47;;;24.80;55.30;;;;;;5012850;28;20370;-46
2022/06/05 08:47:20;;;;;;;6.55;5.95;;;24.50;56.60;;;;;;5046995;28;20361;-47
2022/06/05 08:50:16;;;;;;;7.70;5.68;;;24.60;57.20;;;;;;5052208;28;20025;-47
2022/06/05 08:53:03;;;;;;;5.88;5.13;;;24.90;58.10;;;;;;5045187;28;20071;-46
2022/06/05 08:55:42;;;;;;;9.95;6.55;;;24.90;57.50;;;;;;5031064;28;20141;-46
2022/06/05 08:58:28;;;;;;;;;;;24.80;55.70;;;;;;5045629;28;20058;-47
2022/06/05 09:01:00;;;;;;;11.25;6.72;;;24.40;56.20;;;;;;5035462;28;19955;-49
2022/06/05 09:03:39;;;;;;;8.07;7.10;;;24.20;56.80;;;;;;5030899;28;20036;-49
2022/06/05 09:06:30;;;;;;;6.18;5.57;;;24.10;57.60;;;;;;5030417;28;20351;-46
2022/06/05 09:08:58;;;;;;;7.15;5.75;;;24.40;59.60;;;;;;5030768;28;20033;-46
2022/06/05 09:11:47;;;;;;;8.15;5.85;;;24.60;59.50;;;;;;5029744;28;20490;-50
2022/06/05 09:14:32;;;;;;;7.37;6.67;;;24.30;57.50;;;;;;5031190;28;20504;-45
2022/06/05 09:17:08;;;;;;;7.78;5.88;;;24.40;58.50;;;;;;5012008;28;20358;-46
2022/06/05 09:19:35;;;;;;;7.60;6.90;;;24.90;59.00;;;;;;5038884;28;20030;-47
2022/06/05 09:22:31;;;;;;;6.97;5.60;;;24.90;57.60;;;;;;5030590;28;20021;-47
2022/06/05 09:25:28;;;;;;;8.25;6.93;;;25.20;57.00;;;;;;5028444;28;20025;-48
2022/06/05 09:28:21;;;;;;;7.03;6.32;;;24.70;56.20;;;;;;5027986;28;20025;-47
2022/06/05 09:31:11;;;;;;;8.70;7.18;;;24.40;57.80;;;;;;5022025;28;20091;-46
2022/06/05 09:33:41;;;;;;;7.38;6.68;;;23.60;58.70;;;;;;5028210;28;20661;-46
2022/06/05 09:36:18;;;;;;;8.50;7.15;;;23.20;61.90;;;;;;5030026;28;20041;-47
2022/06/05 09:39:17;;;;;;;7.78;6.38;;;23.20;61.90;;;;;;5049891;28;20083;-48
2022/06/05 09:42:22;;;;;;;9.32;6.28;;;23.10;62.20;;;;;;5027051;28;20112;-46
2022/06/05 09:45:14;;;;;;;7.20;6.50;;;23.20;62.60;;;;;;5026836;28;20420;-47
2022/06/05 09:48:12;;;;;;;7.32;6.40;;;22.90;61.40;;;;;;5027125;28;20032;-47
2022/06/05 09:50:39;;;;;;;7.80;6.47;;;22.90;62.70;;;;;;5029805;28;20033;-47
2022/06/05 09:53:10;;;;;;;7.97;6.03;;;22.90;61.20;;;;;;5029977;28;20021;-48
2022/06/05 09:56:12;;;;;;;8.07;6.57;;;23.20;62.80;;;;;;5015447;28;20654;-46
2022/06/05 09:58:56;;;;;;;6.20;5.18;;;23.50;61.10;;;;;;5036801;28;20060;-48
2022/06/05 10:01:30;;;;;;;7.93;5.32;;;23.70;59.20;;;;;;5028173;28;20033;-47
2022/06/05 10:04:05;;;;;;;8.30;6.35;;;23.90;59.90;;;;;;5049642;28;20029;-47
2022/06/05 10:06:45;;;;;;;6.93;6.25;;;23.90;58.70;;;;;;5035908;28;20037;-48
2022/06/05 10:09:21;;;;;;;6.28;5.03;;;24.10;58.70;;;;;;5030324;28;20029;-50
2022/06/05 10:12:12;;;;;;;6.25;5.20;;;24.40;57.80;;;;;;5049794;28;20358;-46
2022/06/05 10:15:04;;;;;;;6.25;5.32;;;24.30;59.50;;;;;;5046676;28;20083;-46
2022/06/05 10:18:06;;;;;;;6.07;5.18;;;24.00;59.90;;;;;;5021380;28;20140;-50
2022/06/05 10:20:39;;;;;;;5.28;4.30;;;23.90;60.20;;;;;;5030337;28;20057;-46
2022/06/05 10:23:30;;;;;;;9.07;5.93;;;23.90;59.10;;;;;;5029206;28;20043;-48
2022/06/05 10:25:56;;;;;;;5.60;4.60;;;24.20;59.10;;;;;;5028799;28;20030;-46
2022/06/05 10:28:35;;;;;;;5.35;4.40;;;24.20;59.00;;;;;;5029340;28;20036;-46
2022/06/05 10:31:04;;;;;;;8.02;4.38;;;24.30;59.10;;;;;;5012525;28;20390;-50
2022/06/05 10:34:03;;;;;;;6.43;5.07;;;24.40;58.30;;;;;;5030418;28;20116;-45
2022/06/05 10:37:06;;;;;;;5.20;3.95;;;24.40;56.90;;;;;;5030238;28;20041;-46
2022/06/05 10:40:05;;;;;;;6.82;4.25;;;24.70;56.20;;;;;;5033557;28;20045;-47
2022/06/05 10:42:43;;;;;;;6.88;4.28;;;24.90;54.30;;;;;;5028745;28;20088;-48
2022/06/05 10:45:46;;;;;;;5.50;3.78;;;25.00;56.30;;;;;;5028681;28;20041;-46
2022/06/05 10:48:30;;;;;;;5.13;4.25;;;25.30;54.30;;;;;;5029480;28;20055;-46
2022/06/05 10:51:20;;;;;;;5.65;4.32;;;25.40;52.50;;;;;;5028164;28;20032;-46
2022/06/05 10:53:58;;;;;;;7.07;4.45;;;25.40;52.20;;;;;;5028447;28;20076;-46
2022/06/05 10:56:50;;;;;;;6.35;4.15;;;25.40;54.50;;;;;;5041429;28;20029;-46
2022/06/05 10:59:53;;;;;;;4.22;3.72;;;25.80;54.10;;;;;;5049051;28;20705;-48
2022/06/05 11:02:59;;;;;;;6.75;4.28;;;25.90;52.80;;;;;;5020999;28;20044;-48
2022/06/05 11:05:51;;;;;;;5.10;4.32;;;25.70;52.90;;;;;;5027670;28;20052;-47
2022/06/05 11:08:37;;;;;;;5.72;4.18;;;25.20;54.30;;;;;;5015104;28;20026;-49
2022/06/05 11:14:34;;;;;;;6.85;3.40;;;25.60;53.60;;;;;;5018477;28;20032;-46
2022/06/05 11:17:05;;;;;;;5.63;3.92;;;25.80;53.90;;;;;;5028098;28;20382;-46
2022/06/05 11:19:50;;;;;;;6.28;3.72;;;25.90;53.60;;;;;;5027351;28;20044;-47
2022/06/05 11:22:19;;;;;;;4.43;3.33;;;25.80;53.80;;;;;;5029532;28;20056;-48
2022/06/05 11:25:08;;;;;;;;;;;25.80;51.30;;;;;;5042686;28;20497;-46
2022/06/05 11:27:53;;;;;;;7.60;3.60;;;25.60;52.20;;;;;;5049785;28;19924;-47
2022/06/05 11:30:29;;;;;;;7.00;4.13;;;25.30;52.80;;;;;;5039736;28;20470;-47
2022/06/05 11:32:54;;;;;;;4.28;3.13;;;25.20;53.80;;;;;;5029769;28;20051;-46
2022/06/05 11:35:33;;;;;;;5.20;3.45;;;25.10;52.90;;;;;;5045339;28;20025;-46
2022/06/05 11:38:37;;;;;;;3.95;3.55;;;25.30;55.50;;;;;;5049119;28;20040;-47
2022/06/05 11:41:26;;;;;;;8.15;3.60;;;25.40;53.90;;;;;;5009272;28;20026;-46
2022/06/05 11:44:16;;;;;;;4.28;3.35;;;25.70;52.60;;;;;;5024367;28;20037;-46
2022/06/05 11:47:04;;;;;;;5.00;3.60;;;25.40;50.40;;;;;;5025159;28;20128;-46
2022/06/05 11:49:48;;;;;;;4.88;3.25;;;25.50;52.80;;;;;;5039293;28;20035;-46
2022/06/05 11:52:27;;;;;;;4.85;3.70;;;25.50;52.30;;;;;;5048231;28;20033;-47
2022/06/05 11:54:58;;;;;;;5.40;3.45;;;25.40;50.70;;;;;;5037060;28;20056;-46
2022/06/05 11:57:49;;;;;;;5.57;3.40;;;25.30;51.90;;;;;;5028438;28;20449;-46
2022/06/05 12:00:26;;;;;;;4.07;3.22;;;25.30;52.70;;;;;;5047741;28;20029;-46
2022/06/05 12:02:54;;;;;;;6.03;3.35;;;25.40;54.30;;;;;;5043553;28;20025;-46
2022/06/05 12:05:41;;;;;;;6.75;3.67;;;25.50;54.80;;;;;;5028451;28;20108;-45
2022/06/05 12:08:42;;;;;;;5.10;3.33;;;25.40;53.70;;;;;;5011701;28;20033;-46
2022/06/05 12:11:27;;;;;;;3.70;3.15;;;25.30;52.50;;;;;;5025493;28;20040;-46
2022/06/05 12:14:31;;;;;;;6.20;3.88;;;25.40;51.70;;;;;;5026268;28;20036;-45
2022/06/05 12:17:39;;;;;;;6.07;4.07;;;25.20;50.80;;;;;;5028414;28;20029;-45
2022/06/05 12:20:44;;;;;;;5.47;3.35;;;25.10;53.70;;;;;;5009483;28;20034;-48
2022/06/05 12:23:22;;;;;;;4.22;3.70;;;25.10;51.60;;;;;;5025982;28;20029;-46
2022/06/05 12:26:00;;;;;;;5.00;3.85;;;24.90;53.20;;;;;;5026401;28;20025;-47
2022/06/05 12:28:38;;;;;;;4.13;3.20;;;24.80;52.00;;;;;;5027869;28;20152;-49
2022/06/05 12:31:40;;;;;;;4.60;3.25;;;24.90;52.70;;;;;;5026133;28;20021;-46
2022/06/05 12:34:55;;;;;;;4.25;3.20;;;24.90;52.90;;;;;;5027335;28;20095;-46
2022/06/05 12:37:36;;;;;;;5.78;3.22;;;24.80;52.40;;;;;;5026249;28;20037;-47
2022/06/05 12:40:15;;;;;;;4.93;3.08;;;24.40;53.40;;;;;;5011984;28;20116;-49
2022/06/05 12:43:00;;;;;;;4.75;3.35;;;24.40;54.90;;;;;;5010216;28;20043;-48
2022/06/05 12:45:30;;;;;;;6.13;3.35;;;24.40;56.00;;;;;;5012493;28;20021;-46
2022/06/05 12:48:26;;;;;;;5.93;3.80;;;24.40;55.70;;;;;;5027751;28;20451;-50
2022/06/05 12:51:20;;;;;;;4.97;4.07;;;24.40;56.80;;;;;;5027052;28;20018;-46
2022/06/05 12:54:24;;;;;;;4.40;3.50;;;24.60;54.00;;;;;;5028335;28;20041;-47
2022/06/05 12:56:56;;;;;;;4.72;3.72;;;24.70;55.70;;;;;;5031801;28;20041;-47
2022/06/05 12:59:57;;;;;;;5.32;3.53;;;24.80;55.70;;;;;;5041250;28;20037;-48
2022/06/05 13:02:43;;;;;;;5.68;3.88;;;24.80;54.60;;;;;;5034610;28;20025;-50
2022/06/05 13:05:38;;;;;;;4.90;3.63;;;24.70;52.50;;;;;;5026144;28;20022;-47
2022/06/05 13:08:04;;;;;;;5.72;3.80;;;24.90;55.20;;;;;;5032041;28;20064;-47
2022/06/05 13:10:37;;;;;;;4.00;3.40;;;24.90;54.90;;;;;;5029921;28;20056;-46
2022/06/05 13:13:19;;;;;;;7.03;3.42;;;24.90;54.20;;;;;;5029996;28;20022;-46
2022/06/05 13:16:05;;;;;;;5.57;4.05;;;24.80;54.00;;;;;;5028842;28;20029;-46
2022/06/05 13:18:33;;;;;;;5.47;3.72;;;24.70;57.80;;;;;;5029146;28;20122;-46
2022/06/05 13:21:21;;;;;;;4.38;3.45;;;24.60;58.60;;;;;;5028975;28;20026;-49
2022/06/05 13:24:32;;;;;;;3.78;3.38;;;24.50;59.90;;;;;;5034413;28;20393;-46
2022/06/05 13:27:24;;;;;;;7.93;4.05;;;24.40;58.60;;;;;;5028714;28;20345;-46
2022/06/05 13:29:58;;;;;;;5.40;4.10;;;24.20;59.40;;;;;;5031533;28;20025;-44
2022/06/05 13:32:48;;;;;;;5.32;3.60;;;24.20;60.70;;;;;;5030588;28;20656;-44
2022/06/05 13:35:35;;;;;;;8.68;4.40;;;24.20;59.40;;;;;;5029684;28;20060;-44